sensor_id;sensor_type;location;lat;lon;timestamp;temperature;humidity
70947;DHT22;58605;48.700;8.760;2023-05-28T00:01:10;9.90;99.90
70947;DHT22;58605;48.700;8.760;2023-05-28T00:03:36;9.90;99.90
70947;DHT22;58605;48.700;8.760;2023-05-28T00:06:03;9.80;99.90
70947;DHT22;58605;48.700;8.760;2023-05-28T00:08:31;9.70;99.90
70947;DHT22;58605;48.700;8.760;2023-05-28T00:10:57;9.70;99.90
70947;DHT22;58605;48.700;8.760;2023-05-28T00:13:26;9.60;99.90
70947;DHT22;58605;48.700;8.760;2023-05-28T00:15:53;9.50;99.90
70947;DHT22;58605;48.700;8.760;2023-05-28T00:18:19;9.50;99.90
70947;DHT22;58605;48.700;8.760;2023-05-28T00:20:46;9.40;99.90
70947;DHT22;58605;48.700;8.760;2023-05-28T00:23:14;9.30;99.90
70947;DHT22;58605;48.700;8.760;2023-05-28T00:25:42;9.20;99.90
70947;DHT22;58605;48.700;8.760;2023-05-28T00:28:08;9.10;99.90
70947;DHT22;58605;48.700;8.760;2023-05-28T00:30:34;9.10;99.90
70947;DHT22;58605;48.700;8.760;2023-05-28T00:33:01;9.50;99.90
70947;DHT22;58605;48.700;8.760;2023-05-28T00:35:34;9.60;99.90
70947;DHT22;58605;48.700;8.760;2023-05-28T00:38:00;9.50;99.90
70947;DHT22;58605;48.700;8.760;2023-05-28T00:40:26;9.40;99.90
70947;DHT22;58605;48.700;8.760;2023-05-28T00:42:54;9.30;99.90
70947;DHT22;58605;48.700;8.760;2023-05-28T00:45:20;9.30;99.90
70947;DHT22;58605;48.700;8.760;2023-05-28T00:47:47;9.20;99.90
70947;DHT22;58605;48.700;8.760;2023-05-28T00:50:14;9.20;99.90
70947;DHT22;58605;48.700;8.760;2023-05-28T00:52:44;9.30;99.90
70947;DHT22;58605;48.700;8.760;2023-05-28T00:55:13;9.30;99.90
70947;DHT22;58605;48.700;8.760;2023-05-28T00:57:40;9.20;99.90
70947;DHT22;58605;48.700;8.760;2023-05-28T01:00:10;9.10;99.90
70947;DHT22;58605;48.700;8.760;2023-05-28T01:02:37;8.90;99.90
70947;DHT22;58605;48.700;8.760;2023-05-28T01:05:03;8.90;99.90
70947;DHT22;58605;48.700;8.760;2023-05-28T01:07:30;8.70;99.90
70947;DHT22;58605;48.700;8.760;2023-05-28T01:09:56;8.60;99.90
70947;DHT22;58605;48.700;8.760;2023-05-28T01:12:24;8.60;99.90
70947;DHT22;58605;48.700;8.760;2023-05-28T01:14:58;8.60;99.90
70947;DHT22;58605;48.700;8.760;2023-05-28T01:17:27;8.70;99.90
70947;DHT22;58605;48.700;8.760;2023-05-28T01:19:54;8.70;99.90
70947;DHT22;58605;48.700;8.760;2023-05-28T01:22:24;8.60;99.90
70947;DHT22;58605;48.700;8.760;2023-05-28T01:24:54;8.60;99.90
70947;DHT22;58605;48.700;8.760;2023-05-28T01:27:22;8.60;99.90
70947;DHT22;58605;48.700;8.760;2023-05-28T01:29:48;8.60;99.90
70947;DHT22;58605;48.700;8.760;2023-05-28T01:32:14;8.60;99.90
70947;DHT22;58605;48.700;8.760;2023-05-28T01:34:40;8.60;99.90
70947;DHT22;58605;48.700;8.760;2023-05-28T01:37:08;8.60;99.90
70947;DHT22;58605;48.700;8.760;2023-05-28T01:39:38;8.50;99.90
70947;DHT22;58605;48.700;8.760;2023-05-28T01:42:08;8.40;99.90
70947;DHT22;58605;48.700;8.760;2023-05-28T01:44:35;8.40;99.90
70947;DHT22;58605;48.700;8.760;2023-05-28T01:47:01;8.40;99.90
70947;DHT22;58605;48.700;8.760;2023-05-28T01:49:28;8.30;99.90
70947;DHT22;58605;48.700;8.760;2023-05-28T01:51:55;8.30;99.90
70947;DHT22;58605;48.700;8.760;2023-05-28T01:54:22;8.40;99.90
70947;DHT22;58605;48.700;8.760;2023-05-28T01:56:49;8.40;99.90
70947;DHT22;58605;48.700;8.760;2023-05-28T01:59:16;8.50;99.90
70947;DHT22;58605;48.700;8.760;2023-05-28T02:01:42;8.40;99.90
70947;DHT22;58605;48.700;8.760;2023-05-28T02:04:09;8.30;99.90
70947;DHT22;58605;48.700;8.760;2023-05-28T02:06:35;8.20;99.90
70947;DHT22;58605;48.700;8.760;2023-05-28T02:09:01;8.20;99.90
70947;DHT22;58605;48.700;8.760;2023-05-28T02:11:27;8.10;99.90
70947;DHT22;58605;48.700;8.760;2023-05-28T02:13:53;8.10;99.90
70947;DHT22;58605;48.700;8.760;2023-05-28T02:16:21;8.00;99.90
70947;DHT22;58605;48.700;8.760;2023-05-28T02:18:51;8.10;99.90
70947;DHT22;58605;48.700;8.760;2023-05-28T02:21:18;8.00;99.90
70947;DHT22;58605;48.700;8.760;2023-05-28T02:23:46;8.10;99.90
70947;DHT22;58605;48.700;8.760;2023-05-28T02:26:12;8.00;99.90
70947;DHT22;58605;48.700;8.760;2023-05-28T02:28:39;8.00;99.90
70947;DHT22;58605;48.700;8.760;2023-05-28T02:31:06;7.90;99.90
70947;DHT22;58605;48.700;8.760;2023-05-28T02:33:34;7.90;99.90
70947;DHT22;58605;48.700;8.760;2023-05-28T02:36:00;7.80;99.90
70947;DHT22;58605;48.700;8.760;2023-05-28T02:38:26;7.80;99.90
70947;DHT22;58605;48.700;8.760;2023-05-28T02:40:52;7.80;99.90
70947;DHT22;58605;48.700;8.760;2023-05-28T02:43:27;7.80;99.90
70947;DHT22;58605;48.700;8.760;2023-05-28T02:45:53;7.80;99.90
70947;DHT22;58605;48.700;8.760;2023-05-28T02:48:19;7.90;99.90
70947;DHT22;58605;48.700;8.760;2023-05-28T02:50:47;7.90;99.90
70947;DHT22;58605;48.700;8.760;2023-05-28T02:53:14;7.80;99.90
70947;DHT22;58605;48.700;8.760;2023-05-28T02:55:40;7.70;99.90
70947;DHT22;58605;48.700;8.760;2023-05-28T02:58:06;7.60;99.90
70947;DHT22;58605;48.700;8.760;2023-05-28T03:00:32;7.50;99.90
70947;DHT22;58605;48.700;8.760;2023-05-28T03:02:59;7.50;99.90
70947;DHT22;58605;48.700;8.760;2023-05-28T03:05:25;7.40;99.90
70947;DHT22;58605;48.700;8.760;2023-05-28T03:07:53;7.30;99.90
70947;DHT22;58605;48.700;8.760;2023-05-28T03:10:19;7.30;99.90
70947;DHT22;58605;48.700;8.760;2023-05-28T03:12:45;7.20;99.90
70947;DHT22;58605;48.700;8.760;2023-05-28T03:15:11;7.30;99.90
70947;DHT22;58605;48.700;8.760;2023-05-28T03:17:38;7.40;99.90
70947;DHT22;58605;48.700;8.760;2023-05-28T03:20:05;7.60;99.90
70947;DHT22;58605;48.700;8.760;2023-05-28T03:22:34;7.50;99.90
70947;DHT22;58605;48.700;8.760;2023-05-28T03:25:01;7.50;99.90
70947;DHT22;58605;48.700;8.760;2023-05-28T03:27:27;7.50;99.90
70947;DHT22;58605;48.700;8.760;2023-05-28T03:29:54;7.40;99.90
70947;DHT22;58605;48.700;8.760;2023-05-28T03:32:21;7.30;99.90
70947;DHT22;58605;48.700;8.760;2023-05-28T03:34:47;7.30;99.90
70947;DHT22;58605;48.700;8.760;2023-05-28T03:37:13;7.30;99.90
70947;DHT22;58605;48.700;8.760;2023-05-28T03:39:45;7.30;99.90
70947;DHT22;58605;48.700;8.760;2023-05-28T03:42:13;7.30;99.90
70947;DHT22;58605;48.700;8.760;2023-05-28T03:44:39;7.30;99.90
70947;DHT22;58605;48.700;8.760;2023-05-28T03:47:05;7.30;99.90
70947;DHT22;58605;48.700;8.760;2023-05-28T03:49:32;7.30;99.90
70947;DHT22;58605;48.700;8.760;2023-05-28T03:51:58;7.20;99.90
70947;DHT22;58605;48.700;8.760;2023-05-28T03:54:24;7.30;99.90
70947;DHT22;58605;48.700;8.760;2023-05-28T03:56:51;7.30;99.90
70947;DHT22;58605;48.700;8.760;2023-05-28T03:59:18;7.20;99.90
70947;DHT22;58605;48.700;8.760;2023-05-28T04:01:44;7.20;99.90
70947;DHT22;58605;48.700;8.760;2023-05-28T04:04:11;7.30;99.90
70947;DHT22;58605;48.700;8.760;2023-05-28T04:06:37;7.30;99.90
70947;DHT22;58605;48.700;8.760;2023-05-28T04:09:03;7.30;99.90
70947;DHT22;58605;48.700;8.760;2023-05-28T04:11:30;7.30;99.90
70947;DHT22;58605;48.700;8.760;2023-05-28T04:13:56;7.30;99.90
70947;DHT22;58605;48.700;8.760;2023-05-28T04:16:24;7.40;99.90
70947;DHT22;58605;48.700;8.760;2023-05-28T04:18:50;7.50;99.90
70947;DHT22;58605;48.700;8.760;2023-05-28T04:21:16;7.50;99.90
70947;DHT22;58605;48.700;8.760;2023-05-28T04:23:43;7.60;99.90
70947;DHT22;58605;48.700;8.760;2023-05-28T04:26:09;7.70;99.90
70947;DHT22;58605;48.700;8.760;2023-05-28T04:28:36;7.70;99.90
70947;DHT22;58605;48.700;8.760;2023-05-28T04:31:03;7.70;99.90
70947;DHT22;58605;48.700;8.760;2023-05-28T04:33:30;7.80;99.90
70947;DHT22;58605;48.700;8.760;2023-05-28T04:36:04;7.90;99.90
70947;DHT22;58605;48.700;8.760;2023-05-28T04:38:30;8.00;99.90
70947;DHT22;58605;48.700;8.760;2023-05-28T04:41:00;8.20;99.90
70947;DHT22;58605;48.700;8.760;2023-05-28T04:43:26;8.20;99.90
70947;DHT22;58605;48.700;8.760;2023-05-28T04:45:55;8.30;99.90
70947;DHT22;58605;48.700;8.760;2023-05-28T04:48:24;8.30;99.90
70947;DHT22;58605;48.700;8.760;2023-05-28T04:50:52;8.40;99.90
70947;DHT22;58605;48.700;8.760;2023-05-28T04:53:19;8.50;99.90
70947;DHT22;58605;48.700;8.760;2023-05-28T04:55:46;8.60;99.90
70947;DHT22;58605;48.700;8.760;2023-05-28T04:58:12;8.70;99.90
70947;DHT22;58605;48.700;8.760;2023-05-28T05:00:38;8.90;99.90
70947;DHT22;58605;48.700;8.760;2023-05-28T05:03:04;9.00;99.90
70947;DHT22;58605;48.700;8.760;2023-05-28T05:05:30;9.20;99.90
70947;DHT22;58605;48.700;8.760;2023-05-28T05:07:58;9.30;99.90
70947;DHT22;58605;48.700;8.760;2023-05-28T05:10:24;9.40;99.90
70947;DHT22;58605;48.700;8.760;2023-05-28T05:12:51;9.60;99.90
70947;DHT22;58605;48.700;8.760;2023-05-28T05:15:17;9.70;99.90
70947;DHT22;58605;48.700;8.760;2023-05-28T05:17:43;9.70;99.90
70947;DHT22;58605;48.700;8.760;2023-05-28T05:20:10;9.70;99.90
70947;DHT22;58605;48.700;8.760;2023-05-28T05:22:36;9.70;99.90
70947;DHT22;58605;48.700;8.760;2023-05-28T05:25:04;9.80;99.90
70947;DHT22;58605;48.700;8.760;2023-05-28T05:27:31;9.90;99.90
70947;DHT22;58605;48.700;8.760;2023-05-28T05:30:00;10.00;99.90
70947;DHT22;58605;48.700;8.760;2023-05-28T05:32:26;10.10;99.90
70947;DHT22;58605;48.700;8.760;2023-05-28T05:34:53;10.20;99.90
70947;DHT22;58605;48.700;8.760;2023-05-28T05:37:19;10.30;99.90
70947;DHT22;58605;48.700;8.760;2023-05-28T05:39:46;10.50;99.90
70947;DHT22;58605;48.700;8.760;2023-05-28T05:42:14;10.60;99.90
70947;DHT22;58605;48.700;8.760;2023-05-28T05:44:40;10.70;99.90
70947;DHT22;58605;48.700;8.760;2023-05-28T05:47:06;10.90;99.90
70947;DHT22;58605;48.700;8.760;2023-05-28T05:49:32;11.00;99.90
70947;DHT22;58605;48.700;8.760;2023-05-28T05:51:58;11.10;99.90
70947;DHT22;58605;48.700;8.760;2023-05-28T05:54:25;11.30;99.90
70947;DHT22;58605;48.700;8.760;2023-05-28T05:56:51;11.30;99.90
70947;DHT22;58605;48.700;8.760;2023-05-28T05:59:20;11.40;99.90
70947;DHT22;58605;48.700;8.760;2023-05-28T06:01:46;11.50;99.90
70947;DHT22;58605;48.700;8.760;2023-05-28T06:04:12;11.60;99.90
70947;DHT22;58605;48.700;8.760;2023-05-28T06:06:38;11.70;99.90
70947;DHT22;58605;48.700;8.760;2023-05-28T06:09:04;11.80;99.90
70947;DHT22;58605;48.700;8.760;2023-05-28T06:11:31;11.90;99.90
70947;DHT22;58605;48.700;8.760;2023-05-28T06:13:57;12.00;99.90
70947;DHT22;58605;48.700;8.760;2023-05-28T06:16:26;12.20;99.90
70947;DHT22;58605;48.700;8.760;2023-05-28T06:18:52;12.30;99.90
70947;DHT22;58605;48.700;8.760;2023-05-28T06:21:18;12.40;99.90
70947;DHT22;58605;48.700;8.760;2023-05-28T06:23:44;12.60;99.90
70947;DHT22;58605;48.700;8.760;2023-05-28T06:26:10;12.70;99.90
70947;DHT22;58605;48.700;8.760;2023-05-28T06:28:36;12.80;99.90
70947;DHT22;58605;48.700;8.760;2023-05-28T06:31:03;13.10;99.90
70947;DHT22;58605;48.700;8.760;2023-05-28T06:33:31;13.30;99.90
70947;DHT22;58605;48.700;8.760;2023-05-28T06:35:57;13.40;99.90
70947;DHT22;58605;48.700;8.760;2023-05-28T06:38:23;13.60;99.90
70947;DHT22;58605;48.700;8.760;2023-05-28T06:40:49;13.80;99.90
70947;DHT22;58605;48.700;8.760;2023-05-28T06:43:16;14.00;97.90
70947;DHT22;58605;48.700;8.760;2023-05-28T06:45:42;14.10;96.70
70947;DHT22;58605;48.700;8.760;2023-05-28T06:48:08;14.20;94.80
70947;DHT22;58605;48.700;8.760;2023-05-28T06:50:36;14.40;93.70
70947;DHT22;58605;48.700;8.760;2023-05-28T06:53:02;14.50;92.10
70947;DHT22;58605;48.700;8.760;2023-05-28T06:55:28;14.50;91.60
70947;DHT22;58605;48.700;8.760;2023-05-28T06:57:54;14.70;90.90
70947;DHT22;58605;48.700;8.760;2023-05-28T07:00:21;14.80;90.10
70947;DHT22;58605;48.700;8.760;2023-05-28T07:02:47;14.90;88.10
70947;DHT22;58605;48.700;8.760;2023-05-28T07:05:13;15.00;86.90
70947;DHT22;58605;48.700;8.760;2023-05-28T07:07:42;15.10;84.40
70947;DHT22;58605;48.700;8.760;2023-05-28T07:10:08;15.20;81.60
70947;DHT22;58605;48.700;8.760;2023-05-28T07:12:36;15.30;79.30
70947;DHT22;58605;48.700;8.760;2023-05-28T07:15:02;15.40;76.60
70947;DHT22;58605;48.700;8.760;2023-05-28T07:17:28;15.50;74.40
70947;DHT22;58605;48.700;8.760;2023-05-28T07:19:54;15.60;75.20
70947;DHT22;58605;48.700;8.760;2023-05-28T07:22:20;15.60;76.10
70947;DHT22;58605;48.700;8.760;2023-05-28T07:24:48;15.70;76.40
70947;DHT22;58605;48.700;8.760;2023-05-28T07:27:14;15.80;75.50
70947;DHT22;58605;48.700;8.760;2023-05-28T07:29:40;15.80;75.90
70947;DHT22;58605;48.700;8.760;2023-05-28T07:32:07;15.90;75.50
70947;DHT22;58605;48.700;8.760;2023-05-28T07:34:34;16.00;76.00
70947;DHT22;58605;48.700;8.760;2023-05-28T07:37:01;16.00;75.90
70947;DHT22;58605;48.700;8.760;2023-05-28T07:39:27;15.90;76.40
70947;DHT22;58605;48.700;8.760;2023-05-28T07:41:55;15.90;77.90
70947;DHT22;58605;48.700;8.760;2023-05-28T07:44:21;16.10;76.40
70947;DHT22;58605;48.700;8.760;2023-05-28T07:46:47;16.20;76.30
70947;DHT22;58605;48.700;8.760;2023-05-28T07:49:13;16.10;76.20
70947;DHT22;58605;48.700;8.760;2023-05-28T07:51:39;16.10;76.80
70947;DHT22;58605;48.700;8.760;2023-05-28T07:54:06;16.10;76.10
70947;DHT22;58605;48.700;8.760;2023-05-28T07:56:32;16.10;76.60
70947;DHT22;58605;48.700;8.760;2023-05-28T07:58:59;16.30;76.40
70947;DHT22;58605;48.700;8.760;2023-05-28T08:01:26;16.20;76.00
70947;DHT22;58605;48.700;8.760;2023-05-28T08:03:52;16.10;76.30
70947;DHT22;58605;48.700;8.760;2023-05-28T08:06:20;16.00;76.50
70947;DHT22;58605;48.700;8.760;2023-05-28T08:08:46;16.00;76.70
70947;DHT22;58605;48.700;8.760;2023-05-28T08:11:12;15.90;77.30
70947;DHT22;58605;48.700;8.760;2023-05-28T08:13:40;15.80;77.50
70947;DHT22;58605;48.700;8.760;2023-05-28T08:16:10;15.70;78.70
70947;DHT22;58605;48.700;8.760;2023-05-28T08:18:37;15.80;78.00
70947;DHT22;58605;48.700;8.760;2023-05-28T08:21:05;15.70;77.80
70947;DHT22;58605;48.700;8.760;2023-05-28T08:23:31;15.70;78.20
70947;DHT22;58605;48.700;8.760;2023-05-28T08:26:00;15.70;78.30
70947;DHT22;58605;48.700;8.760;2023-05-28T08:28:27;15.70;78.70
70947;DHT22;58605;48.700;8.760;2023-05-28T08:30:53;16.10;76.80
70947;DHT22;58605;48.700;8.760;2023-05-28T08:33:21;16.30;75.90
70947;DHT22;58605;48.700;8.760;2023-05-28T08:35:47;16.20;76.30
70947;DHT22;58605;48.700;8.760;2023-05-28T08:38:14;16.10;76.60
70947;DHT22;58605;48.700;8.760;2023-05-28T08:40:42;16.30;76.30
70947;DHT22;58605;48.700;8.760;2023-05-28T08:43:09;16.20;76.30
70947;DHT22;58605;48.700;8.760;2023-05-28T08:45:35;16.00;77.40
70947;DHT22;58605;48.700;8.760;2023-05-28T08:48:04;15.90;77.70
70947;DHT22;58605;48.700;8.760;2023-05-28T08:50:32;15.80;78.30
70947;DHT22;58605;48.700;8.760;2023-05-28T08:53:02;15.90;77.80
70947;DHT22;58605;48.700;8.760;2023-05-28T08:55:28;15.80;77.80
70947;DHT22;58605;48.700;8.760;2023-05-28T08:57:55;15.90;78.20
70947;DHT22;58605;48.700;8.760;2023-05-28T09:00:21;16.10;80.00
70947;DHT22;58605;48.700;8.760;2023-05-28T09:02:49;16.00;77.80
70947;DHT22;58605;48.700;8.760;2023-05-28T09:05:15;16.10;79.30
70947;DHT22;58605;48.700;8.760;2023-05-28T09:07:43;16.10;77.90
70947;DHT22;58605;48.700;8.760;2023-05-28T09:10:11;16.20;77.80
70947;DHT22;58605;48.700;8.760;2023-05-28T09:12:37;16.10;77.40
70947;DHT22;58605;48.700;8.760;2023-05-28T09:15:07;16.00;78.10
70947;DHT22;58605;48.700;8.760;2023-05-28T09:17:34;16.00;78.10
70947;DHT22;58605;48.700;8.760;2023-05-28T09:20:03;16.20;79.10
70947;DHT22;58605;48.700;8.760;2023-05-28T09:22:36;16.70;76.90
70947;DHT22;58605;48.700;8.760;2023-05-28T09:25:04;16.40;77.10
70947;DHT22;58605;48.700;8.760;2023-05-28T09:27:32;16.40;77.10
70947;DHT22;58605;48.700;8.760;2023-05-28T09:30:03;16.30;77.00
70947;DHT22;58605;48.700;8.760;2023-05-28T09:32:33;16.30;77.20
70947;DHT22;58605;48.700;8.760;2023-05-28T09:35:00;16.40;76.20
70947;DHT22;58605;48.700;8.760;2023-05-28T09:37:28;16.40;78.20
70947;DHT22;58605;48.700;8.760;2023-05-28T09:40:00;17.40;72.90
70947;DHT22;58605;48.700;8.760;2023-05-28T09:42:31;17.10;74.10
70947;DHT22;58605;48.700;8.760;2023-05-28T09:45:00;16.90;74.80
70947;DHT22;58605;48.700;8.760;2023-05-28T09:47:26;16.80;75.70
70947;DHT22;58605;48.700;8.760;2023-05-28T09:49:52;16.70;79.00
70947;DHT22;58605;48.700;8.760;2023-05-28T09:52:19;17.50;71.80
70947;DHT22;58605;48.700;8.760;2023-05-28T09:54:49;17.50;72.50
70947;DHT22;58605;48.700;8.760;2023-05-28T09:57:18;17.20;73.40
70947;DHT22;58605;48.700;8.760;2023-05-28T09:59:50;16.90;74.30
70947;DHT22;58605;48.700;8.760;2023-05-28T10:02:25;16.80;76.80
70947;DHT22;58605;48.700;8.760;2023-05-28T10:04:53;17.60;71.50
70947;DHT22;58605;48.700;8.760;2023-05-28T10:07:25;17.50;72.50
70947;DHT22;58605;48.700;8.760;2023-05-28T10:09:54;17.50;73.40
70947;DHT22;58605;48.700;8.760;2023-05-28T10:12:24;18.10;71.00
70947;DHT22;58605;48.700;8.760;2023-05-28T10:14:53;18.70;70.30
70947;DHT22;58605;48.700;8.760;2023-05-28T10:17:19;18.50;70.20
70947;DHT22;58605;48.700;8.760;2023-05-28T10:19:47;18.00;70.40
70947;DHT22;58605;48.700;8.760;2023-05-28T10:22:14;17.70;71.40
70947;DHT22;58605;48.700;8.760;2023-05-28T10:24:40;17.40;73.40
70947;DHT22;58605;48.700;8.760;2023-05-28T10:27:07;17.10;73.50
70947;DHT22;58605;48.700;8.760;2023-05-28T10:29:38;17.00;73.80
70947;DHT22;58605;48.700;8.760;2023-05-28T10:32:06;17.10;73.40
70947;DHT22;58605;48.700;8.760;2023-05-28T10:34:33;17.40;72.20
70947;DHT22;58605;48.700;8.760;2023-05-28T10:37:01;17.20;73.00
70947;DHT22;58605;48.700;8.760;2023-05-28T10:39:41;17.10;73.60
70947;DHT22;58605;48.700;8.760;2023-05-28T10:42:07;17.70;73.70
70947;DHT22;58605;48.700;8.760;2023-05-28T10:44:49;18.40;72.90
70947;DHT22;58605;48.700;8.760;2023-05-28T10:47:31;18.30;70.70
70947;DHT22;58605;48.700;8.760;2023-05-28T10:50:00;18.60;68.20
70947;DHT22;58605;48.700;8.760;2023-05-28T10:52:36;19.00;66.20
70947;DHT22;58605;48.700;8.760;2023-05-28T10:55:03;19.20;66.70
70947;DHT22;58605;48.700;8.760;2023-05-28T10:57:39;19.10;68.60
70947;DHT22;58605;48.700;8.760;2023-05-28T11:00:07;19.20;61.90
70947;DHT22;58605;48.700;8.760;2023-05-28T11:02:42;19.70;61.10
70947;DHT22;58605;48.700;8.760;2023-05-28T11:05:14;19.70;64.20
70947;DHT22;58605;48.700;8.760;2023-05-28T11:07:42;19.60;62.50
70947;DHT22;58605;48.700;8.760;2023-05-28T11:10:09;19.60;63.90
70947;DHT22;58605;48.700;8.760;2023-05-28T11:12:37;18.90;66.40
70947;DHT22;58605;48.700;8.760;2023-05-28T11:15:05;18.80;67.20
70947;DHT22;58605;48.700;8.760;2023-05-28T11:17:41;19.20;62.60
70947;DHT22;58605;48.700;8.760;2023-05-28T11:20:16;19.50;63.90
70947;DHT22;58605;48.700;8.760;2023-05-28T11:22:43;19.70;66.40
70947;DHT22;58605;48.700;8.760;2023-05-28T11:25:10;20.10;63.40
70947;DHT22;58605;48.700;8.760;2023-05-28T11:27:38;20.40;59.60
70947;DHT22;58605;48.700;8.760;2023-05-28T11:30:08;20.50;62.20
70947;DHT22;58605;48.700;8.760;2023-05-28T11:32:39;20.60;60.50
70947;DHT22;58605;48.700;8.760;2023-05-28T11:35:06;20.50;61.30
70947;DHT22;58605;48.700;8.760;2023-05-28T11:37:33;20.50;60.40
70947;DHT22;58605;48.700;8.760;2023-05-28T11:40:01;20.40;64.80
70947;DHT22;58605;48.700;8.760;2023-05-28T11:42:31;20.30;61.30
70947;DHT22;58605;48.700;8.760;2023-05-28T11:44:57;20.40;59.90
70947;DHT22;58605;48.700;8.760;2023-05-28T11:47:24;20.70;60.70
70947;DHT22;58605;48.700;8.760;2023-05-28T11:49:52;20.40;61.20
70947;DHT22;58605;48.700;8.760;2023-05-28T11:52:20;20.20;65.00
70947;DHT22;58605;48.700;8.760;2023-05-28T11:54:48;20.20;63.20
70947;DHT22;58605;48.700;8.760;2023-05-28T11:57:25;19.90;64.50
70947;DHT22;58605;48.700;8.760;2023-05-28T11:59:58;19.80;64.10
70947;DHT22;58605;48.700;8.760;2023-05-28T12:02:24;19.90;63.60
70947;DHT22;58605;48.700;8.760;2023-05-28T12:04:56;19.70;65.10
70947;DHT22;58605;48.700;8.760;2023-05-28T12:07:26;19.30;65.20
70947;DHT22;58605;48.700;8.760;2023-05-28T12:10:02;18.90;66.30
70947;DHT22;58605;48.700;8.760;2023-05-28T12:12:29;19.40;64.50
70947;DHT22;58605;48.700;8.760;2023-05-28T12:14:58;19.70;62.80
70947;DHT22;58605;48.700;8.760;2023-05-28T12:17:26;20.20;62.40
70947;DHT22;58605;48.700;8.760;2023-05-28T12:19:55;20.70;60.00
70947;DHT22;58605;48.700;8.760;2023-05-28T12:22:21;20.80;61.60
70947;DHT22;58605;48.700;8.760;2023-05-28T12:24:49;20.80;60.40
70947;DHT22;58605;48.700;8.760;2023-05-28T12:27:19;20.60;62.40
70947;DHT22;58605;48.700;8.760;2023-05-28T12:29:46;20.30;63.10
70947;DHT22;58605;48.700;8.760;2023-05-28T12:32:12;20.60;60.80
70947;DHT22;58605;48.700;8.760;2023-05-28T12:34:38;20.80;61.40
70947;DHT22;58605;48.700;8.760;2023-05-28T12:37:06;20.90;62.30
70947;DHT22;58605;48.700;8.760;2023-05-28T12:39:32;21.10;62.00
70947;DHT22;58605;48.700;8.760;2023-05-28T12:41:58;20.90;61.20
70947;DHT22;58605;48.700;8.760;2023-05-28T12:44:25;20.70;62.10
70947;DHT22;58605;48.700;8.760;2023-05-28T12:46:51;20.40;62.00
70947;DHT22;58605;48.700;8.760;2023-05-28T12:49:18;20.90;58.70
70947;DHT22;58605;48.700;8.760;2023-05-28T12:51:44;21.20;58.60
70947;DHT22;58605;48.700;8.760;2023-05-28T12:54:12;21.10;59.20
70947;DHT22;58605;48.700;8.760;2023-05-28T12:56:38;20.80;60.70
70947;DHT22;58605;48.700;8.760;2023-05-28T12:59:05;20.80;61.60
70947;DHT22;58605;48.700;8.760;2023-05-28T13:01:31;21.00;60.00
70947;DHT22;58605;48.700;8.760;2023-05-28T13:03:57;21.30;59.30
70947;DHT22;58605;48.700;8.760;2023-05-28T13:06:23;21.50;60.00
70947;DHT22;58605;48.700;8.760;2023-05-28T13:08:49;21.40;58.40
70947;DHT22;58605;48.700;8.760;2023-05-28T13:11:17;21.30;60.30
70947;DHT22;58605;48.700;8.760;2023-05-28T13:13:43;21.30;59.10
70947;DHT22;58605;48.700;8.760;2023-05-28T13:16:12;21.00;61.70
70947;DHT22;58605;48.700;8.760;2023-05-28T13:18:38;20.90;61.30
70947;DHT22;58605;48.700;8.760;2023-05-28T13:21:05;20.50;61.50
70947;DHT22;58605;48.700;8.760;2023-05-28T13:23:31;20.60;63.60
70947;DHT22;58605;48.700;8.760;2023-05-28T13:25:57;21.00;58.40
70947;DHT22;58605;48.700;8.760;2023-05-28T13:28:25;21.50;57.80
70947;DHT22;58605;48.700;8.760;2023-05-28T13:30:51;21.50;59.50
70947;DHT22;58605;48.700;8.760;2023-05-28T13:33:17;21.50;58.10
70947;DHT22;58605;48.700;8.760;2023-05-28T13:35:47;21.50;58.80
70947;DHT22;58605;48.700;8.760;2023-05-28T13:38:13;21.20;60.10
70947;DHT22;58605;48.700;8.760;2023-05-28T13:40:39;21.10;60.50
70947;DHT22;58605;48.700;8.760;2023-05-28T13:43:05;21.20;61.60
70947;DHT22;58605;48.700;8.760;2023-05-28T13:45:37;20.60;62.60
70947;DHT22;58605;48.700;8.760;2023-05-28T13:48:04;20.10;64.50
70947;DHT22;58605;48.700;8.760;2023-05-28T13:50:30;20.60;62.10
70947;DHT22;58605;48.700;8.760;2023-05-28T13:52:57;21.10;62.00
70947;DHT22;58605;48.700;8.760;2023-05-28T13:55:24;20.70;62.00
70947;DHT22;58605;48.700;8.760;2023-05-28T13:57:50;20.60;63.50
70947;DHT22;58605;48.700;8.760;2023-05-28T14:00:17;20.40;63.60
70947;DHT22;58605;48.700;8.760;2023-05-28T14:02:45;20.90;62.50
70947;DHT22;58605;48.700;8.760;2023-05-28T14:05:11;20.70;60.30
70947;DHT22;58605;48.700;8.760;2023-05-28T14:07:37;21.30;57.80
70947;DHT22;58605;48.700;8.760;2023-05-28T14:10:03;21.30;61.30
70947;DHT22;58605;48.700;8.760;2023-05-28T14:12:30;21.60;57.10
70947;DHT22;58605;48.700;8.760;2023-05-28T14:14:56;21.80;56.70
70947;DHT22;58605;48.700;8.760;2023-05-28T14:17:22;21.90;56.80
70947;DHT22;58605;48.700;8.760;2023-05-28T14:19:50;22.00;58.20
70947;DHT22;58605;48.700;8.760;2023-05-28T14:22:17;22.10;55.50
70947;DHT22;58605;48.700;8.760;2023-05-28T14:24:43;22.30;56.90
70947;DHT22;58605;48.700;8.760;2023-05-28T14:27:09;22.00;58.60
70947;DHT22;58605;48.700;8.760;2023-05-28T14:29:35;22.00;56.90
70947;DHT22;58605;48.700;8.760;2023-05-28T14:32:02;22.10;56.90
70947;DHT22;58605;48.700;8.760;2023-05-28T14:34:28;22.10;55.60
70947;DHT22;58605;48.700;8.760;2023-05-28T14:36:56;22.30;55.70
70947;DHT22;58605;48.700;8.760;2023-05-28T14:39:22;22.30;53.90
70947;DHT22;58605;48.700;8.760;2023-05-28T14:41:48;22.30;51.60
70947;DHT22;58605;48.700;8.760;2023-05-28T14:44:14;22.40;52.10
70947;DHT22;58605;48.700;8.760;2023-05-28T14:46:40;22.50;53.60
70947;DHT22;58605;48.700;8.760;2023-05-28T14:49:06;22.50;54.20
70947;DHT22;58605;48.700;8.760;2023-05-28T14:51:33;22.30;54.00
70947;DHT22;58605;48.700;8.760;2023-05-28T14:54:01;22.30;56.10
70947;DHT22;58605;48.700;8.760;2023-05-28T14:56:27;22.50;54.70
70947;DHT22;58605;48.700;8.760;2023-05-28T14:58:53;22.60;53.00
70947;DHT22;58605;48.700;8.760;2023-05-28T15:01:19;22.50;52.30
70947;DHT22;58605;48.700;8.760;2023-05-28T15:03:46;22.60;51.70
70947;DHT22;58605;48.700;8.760;2023-05-28T15:06:12;22.70;49.70
70947;DHT22;58605;48.700;8.760;2023-05-28T15:08:38;22.80;50.40
70947;DHT22;58605;48.700;8.760;2023-05-28T15:11:07;22.80;50.80
70947;DHT22;58605;48.700;8.760;2023-05-28T15:13:34;22.80;52.70
70947;DHT22;58605;48.700;8.760;2023-05-28T15:16:00;22.90;49.80
70947;DHT22;58605;48.700;8.760;2023-05-28T15:18:26;22.90;49.30
70947;DHT22;58605;48.700;8.760;2023-05-28T15:20:53;23.00;48.10
70947;DHT22;58605;48.700;8.760;2023-05-28T15:23:19;23.00;49.10
70947;DHT22;58605;48.700;8.760;2023-05-28T15:25:46;23.10;53.00
70947;DHT22;58605;48.700;8.760;2023-05-28T15:28:14;23.10;52.10
70947;DHT22;58605;48.700;8.760;2023-05-28T15:30:41;23.00;52.40
70947;DHT22;58605;48.700;8.760;2023-05-28T15:33:09;23.10;53.30
70947;DHT22;58605;48.700;8.760;2023-05-28T15:35:36;23.00;53.00